Time;durP1;ratioP1;P1;durP2;ratioP2;P2;SDS_P1;SDS_P2;PMS_P1;PMS_P2;Temp;Humidity;BMP_temperature;BMP_pressure;BME280_temperature;BME280_humidity;BME280_pressure;Samples;Min_cycle;Max_cycle;Signal;HPM_P1;HPM_P2
2022/05/26 00:01:13;;;;;;;9.25;6.07;;;14.00;99.90;;;;;;5035189;28;20576;-74
2022/05/26 00:03:41;;;;;;;10.30;6.25;;;14.00;99.90;;;;;;5035941;28;20823;-75
2022/05/26 00:06:09;;;;;;;10.07;6.40;;;14.00;99.90;;;;;;5035800;28;20147;-76
2022/05/26 00:08:36;;;;;;;9.55;6.03;;;14.00;99.90;;;;;;5036885;28;20045;-76
2022/05/26 00:11:05;;;;;;;12.90;6.80;;;14.00;99.90;;;;;;5036847;28;20051;-75
2022/05/26 00:13:31;;;;;;;11.95;6.40;;;14.00;99.90;;;;;;5019954;28;20576;-76
2022/05/26 00:15:57;;;;;;;10.90;5.63;;;14.10;99.90;;;;;;5038630;28;20053;-76
2022/05/26 00:18:22;;;;;;;10.88;5.40;;;14.00;99.90;;;;;;5039834;28;20048;-76
2022/05/26 00:20:48;;;;;;;7.80;5.88;;;14.10;99.90;;;;;;5021704;28;20095;-75
2022/05/26 00:23:14;;;;;;;6.82;4.85;;;14.10;99.90;;;;;;5039620;28;20106;-76
2022/05/26 00:25:40;;;;;;;13.15;6.85;;;14.10;99.90;;;;;;5039472;28;20845;-76
2022/05/26 00:28:06;;;;;;;9.75;5.55;;;14.10;99.90;;;;;;5038735;28;20544;-76
2022/05/26 00:30:33;;;;;;;11.95;6.30;;;14.10;99.90;;;;;;5039482;28;20492;-75
2022/05/26 00:32:59;;;;;;;10.05;6.53;;;14.20;99.90;;;;;;5038414;28;20059;-76
2022/05/26 00:35:26;;;;;;;12.63;5.22;;;14.10;99.90;;;;;;5020974;28;20256;-75
2022/05/26 00:37:52;;;;;;;14.18;6.60;;;14.10;99.90;;;;;;5003801;28;20052;-76
2022/05/26 00:40:19;;;;;;;12.48;6.53;;;14.10;99.90;;;;;;5038807;28;20047;-76
2022/05/26 00:42:45;;;;;;;16.27;6.95;;;14.10;99.90;;;;;;5033424;28;20040;-76
2022/05/26 00:45:11;;;;;;;10.13;7.13;;;14.10;99.90;;;;;;5021424;28;20891;-75
2022/05/26 00:47:44;;;;;;;13.82;7.88;;;14.10;99.90;;;;;;5039881;28;20103;-76
2022/05/26 00:50:21;;;;;;;15.13;7.60;;;14.10;99.90;;;;;;5033604;28;20048;-76
2022/05/26 00:52:52;;;;;;;14.68;6.88;;;14.10;99.90;;;;;;5039977;28;20045;-75
2022/05/26 00:55:21;;;;;;;17.63;7.32;;;14.10;99.90;;;;;;5039910;28;20463;-76
2022/05/26 00:57:51;;;;;;;21.52;8.65;;;14.10;99.90;;;;;;5039643;28;20051;-75
2022/05/26 01:00:23;;;;;;;25.50;8.02;;;14.10;99.90;;;;;;5021650;28;20522;-75
2022/05/26 01:02:59;;;;;;;20.30;8.23;;;14.10;99.90;;;;;;5038636;28;20061;-75
2022/05/26 01:05:31;;;;;;;27.35;9.77;;;14.00;99.90;;;;;;5039536;28;20048;-76
2022/05/26 01:07:58;;;;;;;18.30;7.90;;;14.10;99.90;;;;;;5021612;28;20138;-75
2022/05/26 01:10:23;;;;;;;16.52;8.27;;;14.10;99.90;;;;;;5038993;28;20470;-76
2022/05/26 01:12:49;;;;;;;21.33;8.77;;;14.00;99.90;;;;;;5038013;28;20568;-75
2022/05/26 01:15:19;;;;;;;15.82;8.38;;;14.10;99.90;;;;;;5038242;28;20057;-76
2022/05/26 01:18:06;;;;;;;22.42;7.50;;;14.10;99.90;;;;;;5020714;28;20894;-77
2022/05/26 01:20:38;;;;;;;15.85;6.93;;;14.10;99.90;;;;;;5031917;28;20520;-76
2022/05/26 01:23:27;;;;;;;13.85;7.68;;;14.10;99.90;;;;;;5038989;28;20092;-75
2022/05/26 01:26:04;;;;;;;22.73;8.48;;;14.20;99.90;;;;;;5038717;28;20136;-76
2022/05/26 01:28:32;;;;;;;22.83;8.30;;;14.20;99.90;;;;;;5039098;28;20045;-76
2022/05/26 01:30:58;;;;;;;24.17;9.77;;;14.20;99.90;;;;;;5020821;28;20052;-75
2022/05/26 01:33:42;;;;;;;17.38;9.15;;;14.20;99.90;;;;;;5038587;28;20057;-76
2022/05/26 01:36:25;;;;;;;18.50;8.55;;;14.20;99.90;;;;;;5032843;28;20060;-76
2022/05/26 01:39:21;;;;;;;17.58;8.52;;;13.80;99.90;;;;;;5037098;28;20049;-76
2022/05/26 01:42:02;;;;;;;20.48;9.02;;;14.20;99.90;;;;;;5042010;28;20045;-77
2022/05/26 01:44:55;;;;;;;17.90;8.10;;;14.20;99.90;;;;;;5037015;28;20147;-77
2022/05/26 01:47:43;;;;;;;16.85;8.23;;;14.20;99.90;;;;;;5042182;28;20044;-77
2022/05/26 01:50:17;;;;;;;17.58;7.88;;;14.20;99.90;;;;;;5024186;28;20495;-78
2022/05/26 01:53:02;;;;;;;11.52;6.57;;;14.10;99.90;;;;;;5041992;28;20515;-77
2022/05/26 01:55:48;;;;;;;14.50;8.18;;;14.10;99.90;;;;;;5041217;28;20074;-77
2022/05/26 01:58:48;;;;;;;24.35;9.30;;;14.10;99.90;;;;;;5023336;28;20413;-77
2022/05/26 02:01:18;;;;;;;16.38;8.13;;;14.10;99.90;;;;;;5017863;28;20060;-77
2022/05/26 02:03:47;;;;;;;13.77;7.28;;;14.10;99.90;;;;;;5022820;28;20053;-77
2022/05/26 02:06:23;;;;;;;20.05;8.15;;;14.10;99.90;;;;;;5023187;28;20056;-76
2022/05/26 02:09:13;;;;;;;23.95;9.18;;;14.10;99.90;;;;;;5042347;28;20045;-77
2022/05/26 02:11:52;;;;;;;25.23;7.75;;;14.10;99.90;;;;;;5036006;28;20080;-77
2022/05/26 02:14:29;;;;;;;22.10;8.90;;;14.10;99.90;;;;;;5038139;28;20124;-77
2022/05/26 02:17:01;;;;;;;18.05;6.85;;;14.10;99.90;;;;;;5041131;28;20048;-76
2022/05/26 02:19:37;;;;;;;21.67;8.85;;;14.10;99.90;;;;;;5023846;28;20056;-77
2022/05/26 02:22:26;;;;;;;17.75;7.68;;;14.10;99.90;;;;;;5041288;28;20045;-77
2022/05/26 02:25:03;;;;;;;32.75;9.93;;;14.20;99.90;;;;;;5037340;28;20120;-76
2022/05/26 02:27:30;;;;;;;18.88;7.72;;;14.10;99.90;;;;;;5034400;28;20059;-77
2022/05/26 02:29:59;;;;;;;19.10;8.05;;;14.10;99.90;;;;;;5018543;28;20041;-76
2022/05/26 02:32:29;;;;;;;21.77;9.02;;;14.10;99.90;;;;;;5034421;28;20088;-74
2022/05/26 02:35:01;;;;;;;20.20;7.75;;;14.20;99.90;;;;;;5035173;28;20171;-74
2022/05/26 02:37:28;;;;;;;16.88;7.38;;;14.10;99.90;;;;;;5017276;28;20056;-75
2022/05/26 02:39:54;;;;;;;21.35;8.10;;;14.20;99.90;;;;;;5034851;28;20071;-74
2022/05/26 02:42:21;;;;;;;25.35;7.57;;;14.10;99.90;;;;;;5017496;28;20493;-74
2022/05/26 02:44:47;;;;;;;15.45;6.45;;;14.10;99.90;;;;;;5036700;28;20048;-75
2022/05/26 02:47:26;;;;;;;16.33;7.32;;;14.20;99.90;;;;;;5041486;28;20060;-74
2022/05/26 02:50:05;;;;;;;15.88;6.68;;;14.20;99.90;;;;;;5041776;28;20508;-74
2022/05/26 02:53:03;;;;;;;16.52;6.93;;;14.10;99.90;;;;;;5035434;28;20218;-74
2022/05/26 02:55:44;;;;;;;22.10;7.50;;;14.10;99.90;;;;;;5039523;28;20420;-74
2022/05/26 02:58:38;;;;;;;15.18;6.45;;;14.10;99.90;;;;;;5041407;28;20608;-75
2022/05/26 03:01:33;;;;;;;18.85;6.35;;;14.00;99.90;;;;;;5042132;28;20051;-74
2022/05/26 03:04:10;;;;;;;17.48;6.72;;;14.00;99.90;;;;;;5040931;28;20056;-74
2022/05/26 03:06:46;;;;;;;18.45;7.30;;;13.90;99.90;;;;;;5036318;28;20063;-75
2022/05/26 03:09:13;;;;;;;16.88;7.22;;;14.00;99.90;;;;;;5041182;28;20055;-75
2022/05/26 03:11:49;;;;;;;16.17;6.78;;;13.90;99.90;;;;;;5007910;28;20080;-75
2022/05/26 03:14:16;;;;;;;20.02;7.13;;;13.90;99.90;;;;;;5040801;28;20480;-76
2022/05/26 03:16:43;;;;;;;19.35;7.63;;;13.80;99.90;;;;;;5024069;28;20377;-76
2022/05/26 03:19:09;;;;;;;15.43;6.60;;;13.80;99.90;;;;;;5042316;28;20053;-75
2022/05/26 03:21:35;;;;;;;13.20;6.15;;;13.80;99.90;;;;;;5042042;28;20405;-76
2022/05/26 03:24:01;;;;;;;14.30;6.38;;;13.80;99.90;;;;;;5042546;28;20057;-75
2022/05/26 03:26:26;;;;;;;13.25;7.35;;;13.80;99.90;;;;;;5041583;28;20094;-76
2022/05/26 03:28:52;;;;;;;14.98;6.40;;;13.80;99.90;;;;;;5006724;28;20587;-76
2022/05/26 03:31:18;;;;;;;14.38;5.85;;;13.80;99.90;;;;;;5041655;28;20053;-76
2022/05/26 03:41:57;;;;;;;17.65;6.38;;;13.80;99.90;;;;;;5025955;28;20712;-76
2022/05/26 03:44:27;;;;;;;13.45;5.40;;;13.80;99.90;;;;;;5041549;28;20061;-76
2022/05/26 03:46:53;;;;;;;16.45;5.40;;;13.80;99.90;;;;;;5040721;28;20293;-75
2022/05/26 03:49:19;;;;;;;13.48;5.78;;;13.70;99.90;;;;;;5040608;28;20044;-75
2022/05/26 03:51:44;;;;;;;20.80;6.28;;;13.70;99.90;;;;;;5022599;28;20106;-77
2022/05/26 03:54:10;;;;;;;12.20;4.80;;;13.70;99.90;;;;;;5040979;28;20052;-75
2022/05/26 03:56:36;;;;;;;11.10;4.38;;;13.60;99.90;;;;;;5040175;28;20049;-76
2022/05/26 03:59:01;;;;;;;7.18;3.53;;;13.60;99.90;;;;;;5040042;28;20091;-75
2022/05/26 04:01:28;;;;;;;15.45;4.20;;;13.60;99.90;;;;;;5022454;28;20053;-75
2022/05/26 04:03:55;;;;;;;9.82;4.13;;;13.60;99.90;;;;;;5021490;28;20833;-75
2022/05/26 04:06:22;;;;;;;10.00;4.40;;;13.70;99.90;;;;;;5040493;28;20163;-75
2022/05/26 04:08:48;;;;;;;10.13;3.50;;;13.70;99.90;;;;;;5039783;28;20079;-76
2022/05/26 04:11:14;;;;;;;8.30;4.00;;;13.70;99.90;;;;;;5040064;28;20571;-75
2022/05/26 04:13:40;;;;;;;9.15;3.35;;;13.70;99.90;;;;;;5022236;28;20441;-75
2022/05/26 04:16:06;;;;;;;10.13;3.65;;;13.80;99.90;;;;;;5021658;28;20194;-75
2022/05/26 04:18:32;;;;;;;6.43;2.92;;;13.80;99.90;;;;;;5022780;28;20150;-76
2022/05/26 04:21:09;;;;;;;7.10;2.85;;;13.80;99.90;;;;;;5040170;28;20056;-76
2022/05/26 04:23:36;;;;;;;8.07;3.00;;;13.80;99.90;;;;;;5022176;28;20124;-76
2022/05/26 04:26:03;;;;;;;9.43;3.08;;;13.80;99.90;;;;;;5039794;28;20057;-76
2022/05/26 04:28:29;;;;;;;6.93;3.72;;;13.70;99.90;;;;;;5040506;28;20383;-76
2022/05/26 04:30:55;;;;;;;9.40;3.22;;;13.70;99.90;;;;;;5039188;28;20584;-76
2022/05/26 04:33:20;;;;;;;5.40;2.88;;;13.70;99.90;;;;;;5039248;28;20893;-76
2022/05/26 04:35:46;;;;;;;6.43;3.00;;;13.70;99.90;;;;;;5039578;28;20118;-76
2022/05/26 04:38:12;;;;;;;5.70;2.22;;;13.70;99.90;;;;;;5039611;28;20618;-76
2022/05/26 04:40:39;;;;;;;8.40;3.20;;;13.70;99.90;;;;;;5039683;28;20084;-75
2022/05/26 04:43:06;;;;;;;10.40;4.13;;;13.80;99.90;;;;;;5022006;28;20059;-76
2022/05/26 04:45:32;;;;;;;8.15;2.67;;;13.80;99.90;;;;;;5039390;28;20053;-75
2022/05/26 04:47:57;;;;;;;5.97;2.90;;;13.80;99.90;;;;;;5039045;28;20105;-76
2022/05/26 04:50:24;;;;;;;5.38;3.03;;;13.80;99.90;;;;;;5014158;28;20499;-77
2022/05/26 04:52:50;;;;;;;3.92;2.08;;;13.80;99.90;;;;;;5031742;28;20507;-77
2022/05/26 04:55:16;;;;;;;7.22;2.88;;;13.90;99.90;;;;;;4997611;28;20053;-77
2022/05/26 04:57:42;;;;;;;6.82;3.00;;;14.00;99.90;;;;;;5034585;28;20044;-77
2022/05/26 05:00:13;;;;;;;9.32;2.50;;;14.00;99.90;;;;;;5036376;28;20041;-77
2022/05/26 05:02:39;;;;;;;5.53;2.47;;;14.10;99.90;;;;;;5033235;28;20493;-77
2022/05/26 05:05:06;;;;;;;7.82;2.20;;;14.10;99.90;;;;;;5036689;28;20064;-76
2022/05/26 05:07:32;;;;;;;4.80;2.10;;;14.20;99.90;;;;;;5019661;28;20064;-74
2022/05/26 05:09:58;;;;;;;4.38;2.05;;;14.20;99.90;;;;;;5003760;28;20053;-75
2022/05/26 05:12:26;;;;;;;5.78;2.50;;;14.20;99.90;;;;;;5037452;28;20456;-75
2022/05/26 05:14:55;;;;;;;9.63;2.58;;;14.20;99.90;;;;;;5004035;28;20084;-76
2022/05/26 05:17:23;;;;;;;3.35;2.20;;;14.30;99.90;;;;;;5042275;28;20202;-76
2022/05/26 05:19:50;;;;;;;4.47;1.95;;;14.40;99.90;;;;;;5024042;28;20051;-77
2022/05/26 05:22:25;;;;;;;3.30;2.20;;;14.40;99.90;;;;;;5024436;28;20063;-76
2022/05/26 05:24:51;;;;;;;4.00;2.17;;;14.50;99.90;;;;;;5024249;28;20484;-75
2022/05/26 05:27:29;;;;;;;2.30;2.03;;;14.50;99.90;;;;;;5041944;28;20130;-75
2022/05/26 05:29:59;;;;;;;3.22;2.85;;;14.60;99.90;;;;;;5024860;28;20049;-76
2022/05/26 05:32:32;;;;;;;4.20;1.50;;;14.70;99.90;;;;;;5042284;28;20127;-76
2022/05/26 05:35:03;;;;;;;5.28;1.95;;;14.80;99.90;;;;;;5024197;28;20098;-76
2022/05/26 05:37:33;;;;;;;5.05;1.48;;;14.90;99.90;;;;;;5042100;28;20120;-76
2022/05/26 05:40:00;;;;;;;3.58;1.88;;;15.00;99.90;;;;;;5001344;28;20052;-77
2022/05/26 05:42:26;;;;;;;4.40;1.77;;;15.00;99.90;;;;;;5017624;28;20044;-76
2022/05/26 05:44:52;;;;;;;5.25;1.73;;;15.00;99.90;;;;;;5023555;28;20411;-76
2022/05/26 05:47:18;;;;;;;7.07;1.90;;;15.00;99.90;;;;;;5041692;28;20489;-76
2022/05/26 05:49:44;;;;;;;7.40;1.88;;;15.00;99.90;;;;;;5042260;28;20053;-76
2022/05/26 05:52:18;;;;;;;6.20;2.60;;;15.10;99.90;;;;;;5022853;28;20122;-76
2022/05/26 05:54:44;;;;;;;5.10;1.83;;;15.20;99.90;;;;;;5040500;28;20492;-76
2022/05/26 05:57:09;;;;;;;3.47;1.75;;;15.30;99.90;;;;;;5038896;28;20056;-76
2022/05/26 05:59:35;;;;;;;4.35;1.80;;;15.30;99.90;;;;;;5039056;28;20049;-78
2022/05/26 06:02:01;;;;;;;7.45;3.53;;;15.40;99.90;;;;;;5004220;28;20056;-76
2022/05/26 06:04:27;;;;;;;2.10;1.73;;;15.40;99.90;;;;;;5017572;28;20048;-75
2022/05/26 06:06:53;;;;;;;3.38;1.50;;;15.40;99.90;;;;;;5037832;28;20056;-77
2022/05/26 06:09:20;;;;;;;4.28;1.98;;;15.40;99.90;;;;;;5018158;28;20045;-76
2022/05/26 06:11:52;;;;;;;4.47;2.05;;;15.40;99.90;;;;;;5018531;28;20098;-76
2022/05/26 06:14:17;;;;;;;6.45;2.28;;;15.40;99.90;;;;;;5037751;28;20037;-77
2022/05/26 06:16:45;;;;;;;2.05;1.70;;;15.40;99.90;;;;;;5019496;28;20041;-76
2022/05/26 06:19:11;;;;;;;4.38;1.70;;;15.50;99.90;;;;;;5038298;28;20061;-75
2022/05/26 06:21:38;;;;;;;2.90;2.33;;;15.50;99.90;;;;;;5038057;28;20037;-77
2022/05/26 06:24:04;;;;;;;6.18;1.83;;;15.80;99.90;;;;;;5021215;28;20041;-78
2022/05/26 06:26:30;;;;;;;4.13;1.55;;;16.80;99.90;;;;;;5003436;28;20053;-77
2022/05/26 06:37:13;;;;;;;4.93;1.45;;;19.10;99.90;;;;;;5038461;28;20048;-78
2022/05/26 06:37:14;;;;;;;3.78;1.10;;;20.70;99.90;;;;;;5020992;28;20060;-76
2022/05/26 06:39:40;;;;;;;4.03;1.63;;;21.40;99.90;;;;;;5039087;28;20352;-76
2022/05/26 06:42:07;;;;;;;2.55;1.30;;;21.70;99.90;;;;;;5001177;28;20614;-78
2022/05/26 06:44:39;;;;;;;4.93;1.45;;;22.30;99.90;;;;;;5041369;28;20059;-78
2022/05/26 06:47:07;;;;;;;6.80;1.83;;;22.00;98.80;;;;;;5040953;28;20052;-80
2022/05/26 06:49:35;;;;;;;6.47;1.73;;;21.30;96.80;;;;;;5022011;28;20784;-78
2022/05/26 06:52:02;;;;;;;5.00;1.35;;;22.20;99.90;;;;;;5039749;28;20174;-78
2022/05/26 06:54:36;;;;;;;5.68;1.35;;;22.10;99.90;;;;;;5040386;28;20049;-78
2022/05/26 06:57:04;;;;;;;4.53;1.33;;;21.40;98.30;;;;;;5022571;28;20052;-79
2022/05/26 06:59:29;;;;;;;5.82;1.33;;;20.60;99.90;;;;;;5022400;28;20156;-79
2022/05/26 07:01:55;;;;;;;4.28;1.50;;;20.30;99.90;;;;;;5040059;28;20045;-78
2022/05/26 07:04:22;;;;;;;6.18;1.63;;;20.60;99.90;;;;;;5038857;28;20515;-77
2022/05/26 07:06:50;;;;;;;3.00;1.00;;;20.70;99.90;;;;;;5038742;28;20071;-79
2022/05/26 07:09:16;;;;;;;2.58;1.40;;;20.40;99.90;;;;;;5022106;28;20055;-79
2022/05/26 07:11:42;;;;;;;2.15;1.20;;;19.90;99.90;;;;;;5019931;28;20797;-78
2022/05/26 07:14:08;;;;;;;4.22;1.17;;;19.40;99.90;;;;;;5020901;28;20037;-77
2022/05/26 07:16:34;;;;;;;3.47;1.02;;;19.00;99.90;;;;;;5039674;28;20060;-79
2022/05/26 07:18:59;;;;;;;3.80;1.02;;;18.80;99.90;;;;;;5039592;28;20049;-78
2022/05/26 07:21:25;;;;;;;2.25;1.30;;;19.30;99.90;;;;;;5039058;28;20052;-80
2022/05/26 07:23:51;;;;;;;2.85;1.20;;;19.10;99.90;;;;;;5030778;28;20912;-78
2022/05/26 07:26:17;;;;;;;3.42;1.77;;;18.90;99.90;;;;;;5026598;28;20045;-78
2022/05/26 07:28:43;;;;;;;1.63;1.00;;;18.60;99.90;;;;;;5034152;28;20157;-77
2022/05/26 07:31:10;;;;;;;4.93;1.15;;;18.60;99.90;;;;;;5031616;28;20126;-79
2022/05/26 07:33:36;;;;;;;1.90;0.90;;;18.60;99.90;;;;;;5016466;28;20932;-77
2022/05/26 07:36:04;;;;;;;2.60;0.98;;;18.60;99.90;;;;;;5037801;28;20154;-79
2022/05/26 07:41:26;;;;;;;3.53;1.38;;;19.30;99.90;;;;;;5020555;28;20064;-81
2022/05/26 07:43:57;;;;;;;2.50;1.20;;;19.60;99.00;;;;;;5017391;28;20060;-80
2022/05/26 07:46:24;;;;;;;2.80;0.90;;;19.70;99.20;;;;;;5035321;28;20119;-80
2022/05/26 07:48:52;;;;;;;2.55;1.30;;;19.60;98.20;;;;;;5038070;28;20055;-81
2022/05/26 07:51:20;;;;;;;5.18;1.42;;;19.60;97.80;;;;;;5005017;28;20140;-79
2022/05/26 07:53:46;;;;;;;2.58;1.17;;;19.50;97.60;;;;;;5021191;28;20044;-81
2022/05/26 07:56:12;;;;;;;2.13;0.98;;;19.50;99.20;;;;;;5039218;28;20148;-78
2022/05/26 07:58:38;;;;;;;2.33;0.98;;;19.60;99.10;;;;;;5022037;28;20053;-80
2022/05/26 08:01:04;;;;;;;4.07;1.00;;;19.70;99.10;;;;;;5041137;28;20048;-81
2022/05/26 08:03:31;;;;;;;1.10;1.00;;;19.80;99.10;;;;;;5039105;28;20068;-82
2022/05/26 08:05:56;;;;;;;2.92;1.00;;;20.10;98.50;;;;;;5039627;28;20049;-77
2022/05/26 08:08:22;;;;;;;4.25;1.05;;;20.60;98.10;;;;;;5039406;28;20079;-79
2022/05/26 08:10:48;;;;;;;4.13;1.35;;;20.90;97.50;;;;;;5005425;28;20060;-80
2022/05/26 08:13:14;;;;;;;4.22;0.90;;;21.60;96.90;;;;;;5034680;28;20492;-78
2022/05/26 08:15:42;;;;;;;5.72;1.40;;;22.00;96.70;;;;;;5034955;28;20167;-80
2022/05/26 08:18:08;;;;;;;2.88;1.13;;;22.20;95.80;;;;;;5037268;28;20535;-80
2022/05/26 08:20:34;;;;;;;4.82;1.30;;;21.80;94.00;;;;;;5036185;28;21019;-77
2022/05/26 08:23:00;;;;;;;2.50;1.00;;;21.80;95.20;;;;;;5018517;28;20143;-77
2022/05/26 08:25:26;;;;;;;1.83;1.02;;;21.60;94.20;;;;;;5034408;28;20554;-77
2022/05/26 08:27:52;;;;;;;3.25;0.98;;;21.70;94.50;;;;;;5034873;28;20045;-77
2022/05/26 08:30:18;;;;;;;4.90;1.08;;;21.10;95.10;;;;;;5035120;28;20067;-77
2022/05/26 08:32:44;;;;;;;6.70;2.22;;;20.80;94.70;;;;;;5034707;28;20606;-79
2022/05/26 08:35:11;;;;;;;2.40;1.08;;;20.90;95.30;;;;;;5016099;28;20103;-79
2022/05/26 08:37:37;;;;;;;8.02;1.40;;;21.10;95.00;;;;;;5034920;28;20063;-79
2022/05/26 08:40:04;;;;;;;6.78;4.05;;;21.00;94.40;;;;;;4999333;28;20770;-76
2022/05/26 08:42:33;;;;;;;5.20;1.90;;;21.00;94.90;;;;;;5034912;28;20044;-84
2022/05/26 08:45:05;;;;;;;4.13;1.10;;;21.10;94.90;;;;;;5000284;28;20049;-83
2022/05/26 08:47:36;;;;;;;3.13;1.25;;;21.70;94.60;;;;;;5032057;28;20153;-81
2022/05/26 08:50:10;;;;;;;4.18;1.08;;;22.00;93.10;;;;;;5018434;28;20075;-79
2022/05/26 08:52:58;;;;;;;4.22;1.05;;;22.40;91.80;;;;;;5039727;28;20057;-78
2022/05/26 08:55:50;;;;;;;3.47;1.33;;;22.40;90.70;;;;;;5019882;28;20798;-78
2022/05/26 08:58:22;;;;;;;2.55;1.05;;;21.80;90.30;;;;;;5034224;28;20645;-83
2022/05/26 09:00:50;;;;;;;4.00;1.05;;;21.70;91.30;;;;;;5034223;28;20365;-82
2022/05/26 09:03:22;;;;;;;4.22;1.25;;;22.30;92.70;;;;;;5038795;28;20041;-79
2022/05/26 09:06:02;;;;;;;2.63;0.98;;;22.80;93.10;;;;;;5036444;28;20045;-79
2022/05/26 09:14:06;;;;;;;2.05;0.93;;;23.20;91.50;;;;;;5022578;28;20064;-80
2022/05/26 09:16:40;;;;;;;3.63;0.80;;;23.40;89.30;;;;;;5039774;28;20052;-79
2022/05/26 09:19:12;;;;;;;2.55;0.93;;;22.60;90.00;;;;;;5039938;28;20053;-78
2022/05/26 09:21:39;;;;;;;2.05;1.10;;;22.60;90.00;;;;;;5022040;28;20091;-79
2022/05/26 09:24:17;;;;;;;2.80;0.80;;;22.90;91.30;;;;;;5005879;28;20071;-78
2022/05/26 09:26:48;;;;;;;2.20;0.77;;;23.20;90.40;;;;;;5003310;28;20773;-77
2022/05/26 09:29:15;;;;;;;3.65;1.20;;;23.20;90.00;;;;;;5022094;28;20053;-78
2022/05/26 09:31:47;;;;;;;2.95;0.88;;;23.00;86.60;;;;;;5033651;28;20049;-76
2022/05/26 09:34:25;;;;;;;4.43;0.88;;;22.90;89.60;;;;;;5017299;28;20049;-77
2022/05/26 09:37:00;;;;;;;2.90;1.15;;;22.30;90.00;;;;;;5036273;28;20055;-76
2022/05/26 09:39:34;;;;;;;2.13;1.20;;;21.80;90.30;;;;;;5035976;28;20102;-76
2022/05/26 09:42:03;;;;;;;3.75;1.08;;;22.30;91.30;;;;;;5035872;28;20438;-78
2022/05/26 09:44:44;;;;;;;2.97;0.90;;;22.70;89.70;;;;;;5000886;28;20182;-76
2022/05/26 09:47:32;;;;;;;2.30;0.70;;;22.90;88.20;;;;;;5015326;28;20045;-77
2022/05/26 09:50:01;;;;;;;3.33;0.88;;;23.20;86.60;;;;;;5018249;28;20048;-79
2022/05/26 09:52:38;;;;;;;2.70;0.90;;;23.50;89.20;;;;;;5033680;28;20115;-76
2022/05/26 09:55:15;;;;;;;3.35;1.08;;;22.90;89.20;;;;;;5014429;28;20549;-76
2022/05/26 09:57:42;;;;;;;7.22;0.93;;;23.40;90.00;;;;;;5035154;28;20052;-75
2022/05/26 10:00:15;;;;;;;1.55;0.73;;;23.30;86.80;;;;;;5003222;28;20045;-76
2022/05/26 10:02:41;;;;;;;2.78;1.60;;;23.50;89.10;;;;;;5036832;28;20063;-76
2022/05/26 10:05:35;;;;;;;2.78;0.98;;;23.70;89.90;;;;;;5039299;28;20123;-76
2022/05/26 10:08:25;;;;;;;2.05;1.00;;;23.60;89.20;;;;;;5021640;28;20500;-75
2022/05/26 10:11:04;;;;;;;3.70;1.02;;;23.90;88.60;;;;;;5020115;28;20053;-76
2022/05/26 10:14:00;;;;;;;2.95;1.00;;;23.80;83.50;;;;;;5020550;28;20086;-75
2022/05/26 10:16:54;;;;;;;4.20;1.02;;;23.20;83.80;;;;;;5037344;28;20286;-75
2022/05/26 10:19:41;;;;;;;1.65;0.80;;;22.80;85.30;;;;;;5037684;28;20041;-75
2022/05/26 10:22:10;;;;;;;3.08;1.17;;;22.40;87.80;;;;;;5039030;28;20060;-75
2022/05/26 10:25:02;;;;;;;2.15;1.20;;;22.00;90.10;;;;;;5038939;28;20588;-76
2022/05/26 10:28:18;;;;;;;1.63;1.10;;;21.60;89.50;;;;;;5018039;28;20124;-77
2022/05/26 10:31:04;;;;;;;2.53;0.82;;;22.10;90.80;;;;;;5035040;28;20067;-76
2022/05/26 10:33:54;;;;;;;2.65;1.02;;;22.30;88.50;;;;;;5032664;28;20085;-78
2022/05/26 10:36:58;;;;;;;5.90;1.10;;;21.90;88.80;;;;;;5036014;28;20409;-80
2022/05/26 10:39:49;;;;;;;1.05;0.82;;;21.60;90.20;;;;;;4944364;28;20061;-80
2022/05/26 10:42:26;;;;;;;2.30;1.00;;;21.30;91.00;;;;;;5012569;28;20061;-74
2022/05/26 10:45:10;;;;;;;0.82;0.80;;;21.00;91.00;;;;;;5033479;28;20087;-76
2022/05/26 10:47:54;;;;;;;1.63;0.90;;;21.40;91.60;;;;;;5032120;28;20056;-79
2022/05/26 10:50:42;;;;;;;2.88;1.10;;;21.70;91.60;;;;;;5015351;28;20041;-78
2022/05/26 10:53:10;;;;;;;1.80;1.08;;;22.20;90.70;;;;;;5036285;28;20881;-80
2022/05/26 10:56:04;;;;;;;3.33;1.10;;;22.40;90.00;;;;;;5036155;28;20064;-78
2022/05/26 10:58:40;;;;;;;4.30;1.13;;;22.10;90.10;;;;;;4986946;28;20076;-78
2022/05/26 11:01:35;;;;;;;1.08;0.80;;;21.80;90.40;;;;;;5017075;28;20068;-77
2022/05/26 11:04:11;;;;;;;3.45;1.17;;;21.80;90.80;;;;;;5018419;28;20060;-75
2022/05/26 11:06:39;;;;;;;8.80;4.28;;;21.80;90.60;;;;;;5034017;28;20850;-74
2022/05/26 11:09:13;;;;;;;4.47;1.83;;;21.20;90.50;;;;;;4996683;28;20052;-75
2022/05/26 11:11:52;;;;;;;3.03;1.20;;;21.00;91.40;;;;;;5033665;28;20076;-75
2022/05/26 11:19:17;;;;;;;1.73;1.23;;;20.60;92.80;;;;;;5088484;27;1965909;-76
2022/05/26 11:21:43;;;;;;;3.22;1.80;;;20.90;92.60;;;;;;5152168;27;20501;-74
2022/05/26 11:24:10;;;;;;;2.90;1.42;;;21.10;92.40;;;;;;5148885;27;20057;-75
2022/05/26 11:26:43;;;;;;;4.47;1.73;;;21.20;92.60;;;;;;5149645;27;20054;-75
2022/05/26 11:29:17;;;;;;;2.15;1.10;;;20.90;92.20;;;;;;5147876;27;20957;-75
2022/05/26 11:38:11;;;;;;;5.15;1.83;;;20.20;94.40;;;;;;5145439;27;20082;-74
2022/05/26 11:40:56;;;;;;;3.60;1.30;;;20.10;93.90;;;;;;5155636;27;20053;-74
2022/05/26 11:43:24;;;;;;;2.10;1.42;;;19.90;95.20;;;;;;5134014;27;20050;-74
2022/05/26 11:45:53;;;;;;;1.73;1.38;;;19.80;95.00;;;;;;5152562;27;20137;-73
2022/05/26 11:48:31;;;;;;;4.22;2.10;;;19.90;94.90;;;;;;5153102;27;20117;-73
2022/05/26 11:51:23;;;;;;;4.40;1.45;;;19.80;94.20;;;;;;5146465;27;20039;-71
2022/05/26 11:53:50;;;;;;;4.88;1.50;;;19.90;94.70;;;;;;5130826;27;20061;-73
2022/05/26 11:56:29;;;;;;;4.20;1.80;;;20.30;94.20;;;;;;5150971;27;20046;-73
2022/05/26 11:59:26;;;;;;;3.85;1.25;;;20.30;93.50;;;;;;5155481;27;20050;-73
2022/05/26 12:01:58;;;;;;;2.45;1.45;;;20.50;94.40;;;;;;5119089;27;20460;-73
2022/05/26 12:04:32;;;;;;;4.57;2.35;;;20.70;94.10;;;;;;5152874;27;20048;-73
2022/05/26 12:07:01;;;;;;;3.55;1.77;;;20.70;94.00;;;;;;5131741;27;20046;-73
2022/05/26 12:09:45;;;;;;;2.75;1.40;;;20.40;93.70;;;;;;5153603;27;20046;-73
2022/05/26 12:12:16;;;;;;;4.78;1.63;;;20.50;94.10;;;;;;5155985;27;20082;-73
2022/05/26 12:14:59;;;;;;;2.10;1.20;;;20.70;95.00;;;;;;5135638;27;20120;-73
2022/05/26 12:17:39;;;;;;;2.30;1.35;;;20.90;94.10;;;;;;5154247;27;20061;-73
2022/05/26 12:20:25;;;;;;;3.35;1.85;;;20.90;93.20;;;;;;5151893;27;20043;-74
2022/05/26 12:22:50;;;;;;;2.35;1.52;;;20.90;93.60;;;;;;5156298;27;20134;-74
2022/05/26 12:25:24;;;;;;;4.10;1.05;;;20.80;92.30;;;;;;5156091;27;20053;-74
2022/05/26 12:27:57;;;;;;;2.03;1.15;;;20.70;93.40;;;;;;5152654;27;20043;-73
2022/05/26 12:30:44;;;;;;;2.72;1.30;;;20.60;93.00;;;;;;5140090;27;20061;-73
2022/05/26 12:33:17;;;;;;;1.50;1.20;;;20.50;92.30;;;;;;5138892;27;20054;-72
2022/05/26 12:36:09;;;;;;;2.72;1.83;;;20.60;93.90;;;;;;5141061;27;20042;-73
2022/05/26 12:38:53;;;;;;;4.53;1.50;;;20.50;93.40;;;;;;5121290;27;20043;-72
2022/05/26 12:41:40;;;;;;;1.77;1.30;;;20.30;93.10;;;;;;5139272;27;20043;-72
2022/05/26 12:45:05;;;;;;;4.65;1.83;;;20.10;93.00;;;;;;5127714;27;20042;-71
2022/05/26 12:47:34;;;;;;;2.25;1.40;;;19.90;94.30;;;;;;5066284;27;20046;-72
2022/05/26 12:50:03;;;;;;;2.35;1.90;;;19.90;94.70;;;;;;5141594;27;20086;-73
2022/05/26 12:52:33;;;;;;;6.35;1.50;;;19.80;94.90;;;;;;5144450;27;20050;-73
2022/05/26 12:55:28;;;;;;;3.67;1.58;;;19.70;95.00;;;;;;5142017;27;20101;-74
2022/05/26 12:58:01;;;;;;;15.10;3.25;;;19.50;95.00;;;;;;5140946;27;20039;-72
2022/05/26 13:00:35;;;;;;;4.20;1.70;;;19.70;96.30;;;;;;5143376;27;20050;-73
2022/05/26 13:03:13;;;;;;;3.20;1.38;;;19.70;95.20;;;;;;5142782;27;20064;-73
2022/05/26 13:05:52;;;;;;;4.90;1.50;;;19.60;94.50;;;;;;5124396;27;20051;-72
2022/05/26 13:08:20;;;;;;;4.38;1.50;;;19.50;94.60;;;;;;5139614;27;20218;-73
2022/05/26 13:10:50;;;;;;;4.18;1.67;;;19.30;94.60;;;;;;5143512;27;20169;-72
2022/05/26 13:13:35;;;;;;;6.82;1.88;;;19.20;94.80;;;;;;5124805;27;20043;-72
2022/05/26 13:16:26;;;;;;;2.88;1.13;;;19.40;94.70;;;;;;5119602;27;20050;-73
2022/05/26 13:18:56;;;;;;;3.60;1.60;;;19.60;95.20;;;;;;5123831;27;20153;-72
2022/05/26 13:21:30;;;;;;;3.40;1.60;;;19.60;94.70;;;;;;5143045;27;20050;-72
2022/05/26 13:23:56;;;;;;;5.65;2.50;;;19.50;94.50;;;;;;5143111;27;20141;-72
2022/05/26 13:26:23;;;;;;;4.57;1.60;;;19.30;94.40;;;;;;5124475;27;20592;-72
2022/05/26 13:28:54;;;;;;;4.47;2.00;;;19.10;94.50;;;;;;5139965;27;20038;-72
2022/05/26 13:34:07;;;;;;;2.90;1.60;;;19.00;95.40;;;;;;5130098;27;20175;-72
2022/05/26 13:36:38;;;;;;;3.08;2.03;;;18.90;95.70;;;;;;5096756;27;20060;-73
2022/05/26 13:39:09;;;;;;;4.18;1.85;;;18.80;95.60;;;;;;5131135;27;20126;-73
2022/05/26 13:41:36;;;;;;;4.15;1.90;;;18.70;95.30;;;;;;5135901;27;20030;-73
2022/05/26 13:44:05;;;;;;;2.63;2.10;;;18.70;96.10;;;;;;5141467;27;20092;-73
2022/05/26 13:46:34;;;;;;;6.82;2.30;;;18.70;95.90;;;;;;5132526;27;20046;-73